createdAt,value
2023-02-23T00:02:05.197Z,6.92
2023-02-23T00:04:32.554Z,6.91
2023-02-23T00:06:59.677Z,6.91
2023-02-23T00:11:57.565Z,6.86
2023-02-23T00:16:57.337Z,6.91
2023-02-23T00:19:25.204Z,6.84
2023-02-23T00:21:53.650Z,6.91
2023-02-23T00:24:21.298Z,6.94
2023-02-23T00:26:51.779Z,6.96
2023-02-23T00:29:22.707Z,6.98
2023-02-23T00:31:50.702Z,6.99
2023-02-23T00:34:21.350Z,6.96
2023-02-23T00:36:54.529Z,6.92
2023-02-23T00:39:23.926Z,6.90
2023-02-23T00:41:52.685Z,6.91
2023-02-23T00:44:23.765Z,6.92
2023-02-23T00:46:52.246Z,6.93
2023-02-23T00:49:22.131Z,6.93
2023-02-23T00:51:49.456Z,7.01
2023-02-23T00:54:17.805Z,6.93
2023-02-23T00:56:45.431Z,6.89
2023-02-23T00:59:12.901Z,6.95
2023-02-23T01:01:42.104Z,6.90
2023-02-23T01:04:10.181Z,7.01
2023-02-23T01:06:41.068Z,7.01
2023-02-23T01:09:09.916Z,6.99
2023-02-23T01:11:36.684Z,6.95
2023-02-23T01:14:03.749Z,6.93
2023-02-23T01:16:33.808Z,6.91
2023-02-23T01:19:03.739Z,6.95
2023-02-23T01:21:38.857Z,7.01
2023-02-23T01:24:06.025Z,7.05
2023-02-23T01:26:36.440Z,7.04
2023-02-23T01:29:10.791Z,7.09
2023-02-23T01:31:40.391Z,7.05
2023-02-23T01:34:08.310Z,7.14
2023-02-23T01:36:39.105Z,7.07
2023-02-23T01:39:08.103Z,7.12
2023-02-23T01:41:37.004Z,7.09
2023-02-23T01:46:54.677Z,7.02
2023-02-23T01:49:27.934Z,6.97
2023-02-23T01:52:07.310Z,6.97
2023-02-23T01:54:38.213Z,6.86
2023-02-23T01:57:07.792Z,6.90
2023-02-23T01:59:44.888Z,6.89
2023-02-23T02:02:13.515Z,6.91
2023-02-23T02:04:45.649Z,6.89
2023-02-23T02:07:18.963Z,6.95
2023-02-23T02:10:07.414Z,7.07
2023-02-23T02:12:34.253Z,7.11
2023-02-23T02:15:04.682Z,7.12
2023-02-23T02:17:48.412Z,7.15
2023-02-23T02:20:30.379Z,7.19
2023-02-23T02:23:15.140Z,7.19
2023-02-23T02:25:57.407Z,7.21
2023-02-23T02:28:30.424Z,7.24
2023-02-23T02:31:30.538Z,7.22
2023-02-23T02:34:16.067Z,7.16
2023-02-23T02:37:10.892Z,7.19
2023-02-23T02:39:49.864Z,7.17
2023-02-23T02:42:30.317Z,7.14
2023-02-23T02:45:30.560Z,7.10
2023-02-23T02:48:00.196Z,7.08
2023-02-23T02:50:35.813Z,7.09
2023-02-23T02:53:10.334Z,7.10
2023-02-23T02:55:43.737Z,7.11
2023-02-23T02:58:12.714Z,7.09
2023-02-23T03:01:06.328Z,7.11
2023-02-23T03:04:06.077Z,7.01
2023-02-23T03:06:56.992Z,7.00
2023-02-23T03:09:30.385Z,7.03
2023-02-23T03:15:19.922Z,7.03
2023-02-23T03:18:08.001Z,7.10
2023-02-23T03:21:02.561Z,7.05
2023-02-23T03:23:48.993Z,6.94
2023-02-23T03:26:30.419Z,6.90
2023-02-23T03:29:30.498Z,6.97
2023-02-23T03:32:30.529Z,7.02
2023-02-23T03:35:30.545Z,6.97
2023-02-23T03:38:25.864Z,6.92
2023-02-23T03:41:15.147Z,6.92
2023-02-23T03:44:20.101Z,6.99
2023-02-23T03:47:06.698Z,6.87
2023-02-23T03:50:01.797Z,6.88
2023-02-23T03:52:29.578Z,6.97
2023-02-23T03:55:28.018Z,7.00
2023-02-23T03:58:21.111Z,7.04
2023-02-23T04:01:10.035Z,7.08
2023-02-23T04:03:59.632Z,7.12
2023-02-23T04:06:49.207Z,7.16
2023-02-23T04:12:23.625Z,7.13
2023-02-23T04:15:15.340Z,7.21
2023-02-23T04:17:43.235Z,7.19
2023-02-23T04:20:14.416Z,6.94
2023-02-23T04:22:41.233Z,6.93
2023-02-23T04:25:09.202Z,6.87
2023-02-23T04:27:36.619Z,6.91
2023-02-23T04:30:11.647Z,6.88
2023-02-23T04:32:38.609Z,6.93
2023-02-23T04:35:05.701Z,6.87
2023-02-23T04:37:32.511Z,6.91
2023-02-23T04:39:59.198Z,6.86
2023-02-23T04:42:26.927Z,6.73
2023-02-23T04:44:53.955Z,6.78
2023-02-23T04:47:20.978Z,6.80
2023-02-23T04:49:47.742Z,6.62
2023-02-23T04:52:14.535Z,6.73
2023-02-23T04:54:42.163Z,6.70
2023-02-23T04:57:10.343Z,6.75
2023-02-23T04:59:37.107Z,6.72
2023-02-23T05:02:04.048Z,6.73
2023-02-23T05:04:31.078Z,6.77
2023-02-23T05:06:58.394Z,6.77
2023-02-23T05:09:25.779Z,6.75
2023-02-23T05:11:52.747Z,6.84
2023-02-23T05:14:19.446Z,6.88
2023-02-23T05:16:46.538Z,6.81
2023-02-23T05:19:15.854Z,6.77
2023-02-23T05:21:42.644Z,6.90
2023-02-23T05:24:09.505Z,6.82
2023-02-23T05:26:36.716Z,6.79
2023-02-23T05:29:03.749Z,6.87
2023-02-23T05:31:30.775Z,6.94
2023-02-23T05:33:57.494Z,6.87
2023-02-23T05:36:24.211Z,6.91
2023-02-23T05:38:50.999Z,6.96
2023-02-23T05:41:21.262Z,7.00
2023-02-23T05:43:49.252Z,6.91
2023-02-23T05:46:19.849Z,6.81
2023-02-23T05:48:47.808Z,6.77
2023-02-23T05:51:16.966Z,6.77
2023-02-23T05:53:44.790Z,6.82
2023-02-23T05:56:20.568Z,6.82
2023-02-23T05:58:48.815Z,6.83
2023-02-23T06:01:15.804Z,6.87
2023-02-23T06:03:42.515Z,6.90
2023-02-23T06:06:09.368Z,6.92
2023-02-23T06:08:36.110Z,6.88
2023-02-23T06:11:04.450Z,6.85
2023-02-23T06:13:31.855Z,6.91
2023-02-23T06:16:02.189Z,6.90
2023-02-23T06:18:30.616Z,6.97
2023-02-23T06:21:01.456Z,6.95
2023-02-23T06:25:55.010Z,6.98
2023-02-23T06:28:21.916Z,6.99
2023-02-23T06:30:51.464Z,7.02
2023-02-23T06:33:18.751Z,7.04
2023-02-23T06:35:46.336Z,7.04
2023-02-23T06:38:13.068Z,7.07
2023-02-23T06:40:40.083Z,7.16
2023-02-23T06:43:06.735Z,7.21
2023-02-23T06:45:33.517Z,7.26
2023-02-23T06:48:01.186Z,7.64
2023-02-23T06:52:56.858Z,7.40
2023-02-23T06:55:24.012Z,7.47
2023-02-23T06:57:52.150Z,7.77
2023-02-23T07:00:19.600Z,7.98
2023-02-23T07:02:46.387Z,7.62
2023-02-23T07:05:13.210Z,7.56
2023-02-23T07:07:40.020Z,7.59
2023-02-23T07:10:07.625Z,7.92
2023-02-23T07:12:34.378Z,7.79
2023-02-23T07:15:01.092Z,7.68
2023-02-23T07:17:27.821Z,7.93
2023-02-23T07:19:54.815Z,8.00
2023-02-23T07:22:22.627Z,7.80
2023-02-23T07:24:49.573Z,7.92
2023-02-23T07:27:18.921Z,8.07
2023-02-23T07:29:45.619Z,7.79
2023-02-23T07:32:12.438Z,7.80
2023-02-23T07:34:40.063Z,8.03
2023-02-23T07:37:06.910Z,8.11
2023-02-23T07:39:33.912Z,8.58
2023-02-23T07:42:00.691Z,8.43
2023-02-23T07:44:27.420Z,8.47
2023-02-23T07:46:54.595Z,8.34
2023-02-23T07:49:21.349Z,8.43
2023-02-23T07:51:48.318Z,8.24
2023-02-23T07:54:16.262Z,8.55
2023-02-23T07:56:42.927Z,8.47
2023-02-23T07:59:10.211Z,8.61
2023-02-23T08:01:37.057Z,8.42
2023-02-23T08:04:03.856Z,8.62
2023-02-23T08:06:31.320Z,8.61
2023-02-23T08:09:02.367Z,8.83
2023-02-23T08:14:00.173Z,8.77
2023-02-23T08:16:32.395Z,8.63
2023-02-23T08:19:02.505Z,8.67
2023-02-23T08:21:30.570Z,8.85
2023-02-23T08:23:58.255Z,8.59
2023-02-23T08:26:25.971Z,8.75
2023-02-23T08:28:54.440Z,8.58
2023-02-23T08:31:24.998Z,8.56
2023-02-23T08:33:52.600Z,8.79
2023-02-23T08:36:21.084Z,8.80
2023-02-23T08:38:48.739Z,8.62
2023-02-23T08:41:15.902Z,8.73
2023-02-23T08:43:44.131Z,8.69
2023-02-23T08:46:11.809Z,8.74
2023-02-23T08:48:40.740Z,8.75
2023-02-23T08:51:08.632Z,8.95
2023-02-23T08:53:36.577Z,8.92
2023-02-23T08:56:06.307Z,9.07
2023-02-23T08:58:35.660Z,9.11
2023-02-23T09:01:02.917Z,9.20
2023-02-23T09:03:30.880Z,8.97
2023-02-23T09:06:08.835Z,9.18
2023-02-23T09:08:36.188Z,9.28
2023-02-23T09:11:02.977Z,9.28
2023-02-23T09:13:30.593Z,9.26
2023-02-23T09:15:57.438Z,9.35
2023-02-23T09:18:30.523Z,9.30
2023-02-23T09:20:57.269Z,9.28
2023-02-23T09:23:24.900Z,9.31
2023-02-23T09:25:51.595Z,9.38
2023-02-23T09:28:20.550Z,9.36
2023-02-23T09:30:47.874Z,9.20
2023-02-23T09:33:15.047Z,9.33
2023-02-23T09:35:41.984Z,9.36
2023-02-23T09:38:09.558Z,9.52
2023-02-23T09:40:53.370Z,9.50
2023-02-23T09:43:30.641Z,9.64
2023-02-23T09:46:14.798Z,9.72
2023-02-23T09:48:43.374Z,9.71
2023-02-23T09:51:18.117Z,9.75
2023-02-23T09:53:51.245Z,9.74
2023-02-23T09:56:31.985Z,9.81
2023-02-23T09:59:01.165Z,9.76
2023-02-23T10:01:30.646Z,9.79
2023-02-23T10:04:03.421Z,9.87
2023-02-23T10:06:30.829Z,10.02
2023-02-23T10:09:04.185Z,9.78
2023-02-23T10:11:44.185Z,9.77
2023-02-23T10:14:29.684Z,10.03
2023-02-23T10:17:17.972Z,10.01
2023-02-23T10:20:13.430Z,10.02
2023-02-23T10:22:41.891Z,10.22
2023-02-23T10:25:14.595Z,10.28
2023-02-23T10:27:45.234Z,10.54
2023-02-23T10:30:19.657Z,10.73
2023-02-23T10:32:52.800Z,10.78
2023-02-23T10:35:21.914Z,11.11
2023-02-23T10:37:50.114Z,10.96
2023-02-23T10:40:22.301Z,11.16
2023-02-23T10:42:50.134Z,11.32
2023-02-23T10:45:25.685Z,11.48
2023-02-23T10:47:58.763Z,11.73
2023-02-23T10:53:00.872Z,11.73
2023-02-23T10:55:30.576Z,11.79
2023-02-23T10:58:19.249Z,12.04
2023-02-23T11:00:53.759Z,12.12
2023-02-23T11:03:30.840Z,12.08
2023-02-23T11:06:01.210Z,12.60
2023-02-23T11:08:30.937Z,12.88
2023-02-23T11:11:19.431Z,12.05
2023-02-23T11:13:49.479Z,12.41
2023-02-23T11:16:29.921Z,12.28
2023-02-23T11:19:06.566Z,12.19
2023-02-23T11:21:38.997Z,12.17
2023-02-23T11:24:25.146Z,12.24
2023-02-23T11:26:54.773Z,12.84
2023-02-23T11:31:59.186Z,12.54
2023-02-23T11:37:01.217Z,12.46
2023-02-23T11:39:28.214Z,12.51
2023-02-23T11:42:19.504Z,12.38
2023-02-23T11:45:16.441Z,12.51
2023-02-23T11:47:54.676Z,12.58
2023-02-23T11:50:29.669Z,12.66
2023-02-23T11:53:14.661Z,12.62
2023-02-23T11:55:48.252Z,12.80
2023-02-23T11:58:23.151Z,12.64
2023-02-23T12:01:17.528Z,12.52
2023-02-23T12:03:56.905Z,12.27
2023-02-23T12:06:31.849Z,12.45
2023-02-23T12:09:23.813Z,12.41
2023-02-23T12:12:23.106Z,12.55
2023-02-23T12:14:56.564Z,12.31
2023-02-23T12:17:29.693Z,12.58
2023-02-23T12:20:13.819Z,12.42
2023-02-23T12:22:45.812Z,12.69
2023-02-23T12:25:27.721Z,12.35
2023-02-23T12:28:30.701Z,12.36
2023-02-23T12:31:02.959Z,12.36
2023-02-23T12:36:39.455Z,12.08
2023-02-23T12:39:30.585Z,12.17
2023-02-23T12:42:35.299Z,11.95
2023-02-23T12:45:06.717Z,11.74
2023-02-23T12:47:38.473Z,11.51
2023-02-23T12:50:21.563Z,11.52
2023-02-23T12:53:23.624Z,11.47
2023-02-23T12:56:04.616Z,11.53
2023-02-23T12:58:38.407Z,11.39
2023-02-23T13:01:39.762Z,11.33
2023-02-23T13:04:30.801Z,11.56
2023-02-23T13:07:04.334Z,11.53
2023-02-23T13:09:39.412Z,11.56
2023-02-23T13:12:21.672Z,11.65
2023-02-23T13:15:15.637Z,11.72
2023-02-23T13:17:55.767Z,11.90
2023-02-23T13:20:33.806Z,11.84
2023-02-23T13:23:39.470Z,11.88
2023-02-23T13:26:29.582Z,11.73
2023-02-23T13:29:06.464Z,11.96
2023-02-23T13:31:36.906Z,11.95
2023-02-23T13:34:07.871Z,12.17
2023-02-23T13:36:36.156Z,12.32
2023-02-23T13:39:28.011Z,12.40
2023-02-23T13:42:17.705Z,12.64
2023-02-23T13:44:53.588Z,12.56
2023-02-23T13:47:39.353Z,12.63
2023-02-23T13:50:17.746Z,12.72
2023-02-23T13:52:47.384Z,12.67
2023-02-23T13:55:40.033Z,12.51
2023-02-23T13:58:11.798Z,12.42
2023-02-23T14:00:39.498Z,12.35
2023-02-23T14:03:08.064Z,12.41
2023-02-23T14:05:38.406Z,12.72
2023-02-23T14:08:06.050Z,12.52
2023-02-23T14:10:39.363Z,12.24
2023-02-23T14:13:15.740Z,12.67
2023-02-23T14:15:53.119Z,12.49
2023-02-23T14:18:21.016Z,12.38
2023-02-23T14:21:02.434Z,12.61
2023-02-23T14:23:35.557Z,12.40
2023-02-23T14:26:15.908Z,12.49
2023-02-23T14:28:50.489Z,12.34
2023-02-23T14:31:21.002Z,12.66
2023-02-23T14:33:49.893Z,12.47
2023-02-23T14:36:22.765Z,12.33
2023-02-23T14:39:02.248Z,12.58
2023-02-23T14:41:39.508Z,12.65
2023-02-23T14:44:43.565Z,12.55
2023-02-23T14:47:21.823Z,12.51
2023-02-23T14:50:01.642Z,12.35
2023-02-23T14:52:39.411Z,12.32
2023-02-23T14:55:12.000Z,12.23
2023-02-23T14:57:42.536Z,12.20
2023-02-23T15:00:15.320Z,12.03
2023-02-23T15:02:56.515Z,12.07
2023-02-23T15:05:26.708Z,11.87
2023-02-23T15:07:54.772Z,11.90
2023-02-23T15:10:35.544Z,11.84
2023-02-23T15:13:10.980Z,11.90
2023-02-23T15:15:40.678Z,11.70
2023-02-23T15:18:39.411Z,11.56
2023-02-23T15:21:27.066Z,11.47
2023-02-23T15:24:16.747Z,11.57
2023-02-23T15:26:43.909Z,11.55
2023-02-23T15:29:10.607Z,11.52
2023-02-23T15:34:03.820Z,11.38
2023-02-23T15:39:07.077Z,11.17
2023-02-23T15:41:37.042Z,11.16
2023-02-23T15:44:13.006Z,11.23
2023-02-23T15:46:41.641Z,11.15
2023-02-23T15:49:14.513Z,11.06
2023-02-23T15:51:49.083Z,11.10
2023-02-23T15:54:29.823Z,11.10
2023-02-23T15:57:03.107Z,11.02
2023-02-23T15:59:34.869Z,10.88
2023-02-23T16:02:03.653Z,10.89
2023-02-23T16:04:33.202Z,10.80
2023-02-23T16:07:17.193Z,10.92
2023-02-23T16:09:55.989Z,10.85
2023-02-23T16:12:25.104Z,10.73
2023-02-23T16:15:07.562Z,10.75
2023-02-23T16:17:38.478Z,10.74
2023-02-23T16:20:17.416Z,10.69
2023-02-23T16:22:55.062Z,10.71
2023-02-23T16:25:25.564Z,10.62
2023-02-23T16:28:01.838Z,10.61
2023-02-23T16:30:32.260Z,10.58
2023-02-23T16:33:23.711Z,10.57
2023-02-23T16:36:10.719Z,10.51
2023-02-23T16:38:39.444Z,10.45
2023-02-23T16:41:22.324Z,10.45
2023-02-23T16:43:51.086Z,10.37
2023-02-23T16:46:19.259Z,10.35
2023-02-23T16:48:46.588Z,10.30
2023-02-23T16:51:18.994Z,10.28
2023-02-23T16:53:46.145Z,10.20
2023-02-23T16:56:17.223Z,10.25
2023-02-23T16:58:47.215Z,10.27
2023-02-23T17:01:17.406Z,10.23
2023-02-23T17:03:52.722Z,10.21
2023-02-23T17:06:21.119Z,10.18
2023-02-23T17:08:57.666Z,10.17
2023-02-23T17:11:24.773Z,10.26
2023-02-23T17:13:51.837Z,10.27
2023-02-23T17:16:18.942Z,10.13
2023-02-23T17:18:47.489Z,10.11
2023-02-23T17:21:15.068Z,10.07
2023-02-23T17:23:51.428Z,10.05
2023-02-23T17:26:21.102Z,10.04
2023-02-23T17:28:48.171Z,10.04
2023-02-23T17:31:16.823Z,10.04
2023-02-23T17:33:44.351Z,10.04
2023-02-23T17:36:16.460Z,10.03
2023-02-23T17:38:46.170Z,9.98
2023-02-23T17:41:18.048Z,9.95
2023-02-23T17:43:45.240Z,9.89
2023-02-23T17:46:12.998Z,9.89
2023-02-23T17:48:41.030Z,9.89
2023-02-23T17:51:10.375Z,9.89
2023-02-23T17:53:37.096Z,9.88
2023-02-23T17:56:04.349Z,9.86
2023-02-23T17:58:31.453Z,9.85
2023-02-23T18:01:00.176Z,9.83
2023-02-23T18:03:32.435Z,9.81
2023-02-23T18:06:03.675Z,9.81
2023-02-23T18:08:30.863Z,9.82
2023-02-23T18:10:57.949Z,9.76
2023-02-23T18:13:25.667Z,9.78
2023-02-23T18:15:55.957Z,9.77
2023-02-23T18:18:24.307Z,9.74
2023-02-23T18:20:53.129Z,9.72
2023-02-23T18:23:27.111Z,9.74
2023-02-23T18:25:53.816Z,9.75
2023-02-23T18:28:21.045Z,9.76
2023-02-23T18:30:48.009Z,9.79
2023-02-23T18:33:14.912Z,9.75
2023-02-23T18:35:45.295Z,9.74
2023-02-23T18:38:14.431Z,9.72
2023-02-23T18:40:41.634Z,9.69
2023-02-23T18:43:09.170Z,9.70
2023-02-23T18:45:39.660Z,9.60
2023-02-23T18:48:16.080Z,9.59
2023-02-23T18:50:42.780Z,9.55
2023-02-23T18:53:11.043Z,9.59
2023-02-23T18:55:39.477Z,9.58
2023-02-23T18:58:06.189Z,9.54
2023-02-23T19:00:39.817Z,9.48
2023-02-23T19:03:06.810Z,9.48
2023-02-23T19:05:34.773Z,9.46
2023-02-23T19:08:01.484Z,9.46
2023-02-23T19:10:30.548Z,9.54
2023-02-23T19:12:57.524Z,9.58
2023-02-23T19:15:24.318Z,9.51
2023-02-23T19:17:51.424Z,9.50
2023-02-23T19:20:18.353Z,9.48
2023-02-23T19:22:52.395Z,9.45
2023-02-23T19:25:19.229Z,9.42
2023-02-23T19:27:46.050Z,9.47
2023-02-23T19:30:14.700Z,9.44
2023-02-23T19:32:42.648Z,9.41
2023-02-23T19:35:15.055Z,9.33
2023-02-23T19:37:52.506Z,9.32
2023-02-23T19:40:23.208Z,9.24
2023-02-23T19:42:52.906Z,9.17
2023-02-23T19:45:19.897Z,9.22
2023-02-23T19:47:46.692Z,9.28
2023-02-23T19:50:17.169Z,9.27
2023-02-23T19:52:45.648Z,9.22
2023-02-23T19:55:13.012Z,9.22
2023-02-23T19:57:40.423Z,9.22
2023-02-23T20:00:11.671Z,9.23
2023-02-23T20:02:43.045Z,9.22
2023-02-23T20:05:14.718Z,9.18
2023-02-23T20:07:41.642Z,9.21
2023-02-23T20:10:10.372Z,9.18
2023-02-23T20:12:37.134Z,9.25
2023-02-23T20:15:04.390Z,9.18
2023-02-23T20:17:31.263Z,9.18
2023-02-23T20:19:58.093Z,9.16
2023-02-23T20:22:24.847Z,9.08
2023-02-23T20:24:51.525Z,9.12
2023-02-23T20:27:22.724Z,9.11
2023-02-23T20:29:50.954Z,9.11
2023-02-23T20:32:17.959Z,9.04
2023-02-23T20:34:46.161Z,9.05
2023-02-23T20:37:12.868Z,9.03
2023-02-23T20:39:39.562Z,9.01
2023-02-23T20:42:06.361Z,9.01
2023-02-23T20:44:33.452Z,9.04
2023-02-23T20:47:01.165Z,9.03
2023-02-23T20:49:28.200Z,9.04
2023-02-23T20:51:54.952Z,8.93
2023-02-23T20:54:21.890Z,8.97
2023-02-23T20:56:59.079Z,8.94
2023-02-23T20:59:30.105Z,8.95
2023-02-23T21:01:57.221Z,8.95
2023-02-23T21:04:23.937Z,8.94
2023-02-23T21:06:51.052Z,8.90
2023-02-23T21:09:18.008Z,8.87
2023-02-23T21:11:46.536Z,8.82
2023-02-23T21:14:14.414Z,8.80
2023-02-23T21:16:46.673Z,8.79
2023-02-23T21:19:16.106Z,8.77
2023-02-23T21:21:47.245Z,8.83
2023-02-23T21:24:15.433Z,8.77
2023-02-23T21:26:42.913Z,8.80
2023-02-23T21:29:14.937Z,8.75
2023-02-23T21:31:43.425Z,8.77
2023-02-23T21:34:11.240Z,8.88
2023-02-23T21:36:39.592Z,8.90
2023-02-23T21:39:06.867Z,8.85
2023-02-23T21:41:34.221Z,8.88
2023-02-23T21:44:02.015Z,8.91
2023-02-23T21:46:28.755Z,8.89
2023-02-23T21:48:59.352Z,8.85
2023-02-23T21:51:29.543Z,8.83
2023-02-23T21:53:58.207Z,8.78
2023-02-23T21:56:25.449Z,8.77
2023-02-23T21:58:54.990Z,8.72
2023-02-23T22:01:26.987Z,8.66
2023-02-23T22:03:55.221Z,8.69
2023-02-23T22:06:28.594Z,8.63
2023-02-23T22:08:56.905Z,8.65
2023-02-23T22:11:27.321Z,8.61
2023-02-23T22:13:59.700Z,8.59
2023-02-23T22:16:29.768Z,8.64
2023-02-23T22:18:56.998Z,8.54
2023-02-23T22:21:24.079Z,8.51
2023-02-23T22:23:53.641Z,8.47
2023-02-23T22:26:20.683Z,8.51
2023-02-23T22:28:47.524Z,8.46
2023-02-23T22:31:15.472Z,8.46
2023-02-23T22:33:44.295Z,8.41
2023-02-23T22:36:13.409Z,8.45
2023-02-23T22:38:41.883Z,8.43
2023-02-23T22:41:12.158Z,8.43
2023-02-23T22:43:39.652Z,8.41
2023-02-23T22:46:08.135Z,8.38
2023-02-23T22:48:36.030Z,8.36
2023-02-23T22:51:03.352Z,8.35
2023-02-23T22:53:30.732Z,8.40
2023-02-23T22:55:58.377Z,8.34
2023-02-23T22:58:26.543Z,8.29
2023-02-23T23:01:03.711Z,8.29
2023-02-23T23:03:35.959Z,8.29
2023-02-23T23:06:04.894Z,8.25
2023-02-23T23:08:36.677Z,8.24
2023-02-23T23:11:09.858Z,8.18
2023-02-23T23:13:44.772Z,8.15
2023-02-23T23:16:30.193Z,8.22
2023-02-23T23:19:12.494Z,8.22
2023-02-23T23:21:41.416Z,8.25
2023-02-23T23:24:13.558Z,8.23
2023-02-23T23:26:41.488Z,8.18
2023-02-23T23:29:14.525Z,8.18
2023-02-23T23:31:45.952Z,8.18
2023-02-23T23:34:13.927Z,8.15
2023-02-23T23:36:49.689Z,8.09
2023-02-23T23:39:19.020Z,8.05
2023-02-23T23:41:48.291Z,8.02
2023-02-23T23:44:21.405Z,7.98
2023-02-23T23:46:53.148Z,7.91
2023-02-23T23:49:22.483Z,7.94
2023-02-23T23:51:51.567Z,7.79
2023-02-23T23:54:21.754Z,7.70
2023-02-23T23:56:50.167Z,7.64
2023-02-23T23:59:20.606Z,7.64
